createdAt,value
2018-12-19T00:00:05.011Z,23.6
2018-12-19T00:01:07.464Z,23.5
2018-12-19T00:02:09.614Z,23.5
2018-12-19T00:03:12.042Z,23.4
2018-12-19T00:04:14.465Z,23.4
2018-12-19T00:05:16.899Z,23.5
2018-12-19T00:06:18.771Z,23.4
2018-12-19T00:07:20.939Z,23.6
2018-12-19T00:08:23.371Z,23.7
2018-12-19T00:09:25.567Z,23.6
2018-12-19T00:10:27.979Z,23.6
2018-12-19T00:11:30.143Z,23.6
2018-12-19T00:12:32.574Z,23.6
2018-12-19T00:13:34.721Z,23.6
2018-12-19T00:14:37.149Z,23.8
2018-12-19T00:15:39.291Z,23.8
2018-12-19T00:16:41.460Z,23.6
2018-12-19T00:17:43.609Z,23.9
2018-12-19T00:18:45.757Z,23.7
2018-12-19T00:19:48.191Z,23.6
2018-12-19T00:20:50.078Z,23.8
2018-12-19T00:21:52.498Z,23.6
2018-12-19T00:22:54.651Z,23.7
2018-12-19T00:23:56.789Z,23.7
2018-12-19T00:24:58.940Z,23.8
2018-12-19T00:26:01.120Z,23.5
2018-12-19T00:27:03.537Z,23.7
2018-12-19T00:28:05.698Z,23.8
2018-12-19T00:29:07.852Z,23.6
2018-12-19T00:30:10.272Z,23.6
2018-12-19T00:31:12.689Z,23.5
2018-12-19T00:32:14.831Z,23.8
2018-12-19T00:33:16.982Z,23.5
2018-12-19T00:34:19.411Z,23.6
2018-12-19T00:35:21.571Z,23.8
2018-12-19T00:36:24.002Z,23.5
2018-12-19T00:37:25.870Z,23.9
2018-12-19T00:38:28.301Z,24
2018-12-19T00:39:30.743Z,23.5
2018-12-19T00:40:33.171Z,23.6
2018-12-19T00:41:35.609Z,24.1
2018-12-19T00:42:38.033Z,23.9
2018-12-19T00:43:40.450Z,24
2018-12-19T00:44:42.615Z,24
2018-12-19T00:45:45.038Z,24.2
2018-12-19T00:46:47.475Z,24
2018-12-19T00:47:49.911Z,23.8
2018-12-19T00:48:52.333Z,23.7
2018-12-19T00:49:54.487Z,23.7
2018-12-19T00:50:56.643Z,24.1
2018-12-19T00:51:58.799Z,24.2
2018-12-19T00:53:00.970Z,24.4
2018-12-19T00:54:03.376Z,23.7
2018-12-19T00:55:05.513Z,24.2
2018-12-19T00:56:07.658Z,23.8
2018-12-19T00:57:10.090Z,24.3
2018-12-19T00:58:12.518Z,23.8
2018-12-19T00:59:14.383Z,24
2018-12-19T01:00:16.800Z,23.8
2018-12-19T01:01:19.211Z,24.2
2018-12-19T01:02:21.638Z,24.2
2018-12-19T01:03:24.076Z,24.2
2018-12-19T01:04:26.201Z,23.8
2018-12-19T01:05:28.627Z,23.7
2018-12-19T01:06:30.219Z,24
2018-12-19T01:07:32.076Z,24.3
2018-12-19T01:08:34.509Z,24.2
2018-12-19T01:09:36.952Z,23.7
2018-12-19T01:10:39.095Z,23.9
2018-12-19T01:11:41.518Z,24.2
2018-12-19T01:12:43.951Z,24.4
2018-12-19T01:13:46.113Z,24
2018-12-19T01:14:48.536Z,23.8
2018-12-19T01:15:50.664Z,24
2018-12-19T01:16:52.809Z,23.9
2018-12-19T01:17:55.241Z,24
2018-12-19T01:18:57.361Z,24.5
2018-12-19T01:19:59.785Z,24.1
2018-12-19T01:21:01.941Z,24.1
2018-12-19T01:22:04.102Z,24
2018-12-19T01:23:06.525Z,24
2018-12-19T01:24:08.380Z,23.9
2018-12-19T01:25:10.829Z,24.2
2018-12-19T01:26:13.253Z,24
2018-12-19T01:27:15.683Z,24
2018-12-19T01:28:17.849Z,23.8
2018-12-19T01:29:20.002Z,24.4
2018-12-19T01:30:22.165Z,24.2
2018-12-19T01:31:24.581Z,24.1
2018-12-19T01:32:26.746Z,24.1
2018-12-19T01:33:28.872Z,23.7
2018-12-19T01:34:31.299Z,24.1
2018-12-19T01:35:33.467Z,23.8
2018-12-19T01:36:35.890Z,24.1
2018-12-19T01:37:38.314Z,24.1
2018-12-19T01:38:40.751Z,24
2018-12-19T01:39:43.182Z,23.8
2018-12-19T01:40:45.315Z,24.3
2018-12-19T01:41:47.482Z,24
2018-12-19T01:42:49.906Z,23.9
2018-12-19T01:43:52.344Z,24.4
2018-12-19T01:44:54.227Z,24.4
2018-12-19T01:45:56.644Z,24.2
2018-12-19T01:46:59.070Z,24
2018-12-19T01:48:01.211Z,23.6
2018-12-19T01:49:03.641Z,24.2
2018-12-19T01:50:06.067Z,24.4
2018-12-19T01:51:08.480Z,23.9
2018-12-19T01:52:10.340Z,24.2
2018-12-19T01:53:12.761Z,24.2
2018-12-19T01:54:14.911Z,24.2
2018-12-19T01:55:17.341Z,23.9
2018-12-19T01:56:19.223Z,24.3
2018-12-19T01:57:21.349Z,24.1
2018-12-19T01:58:23.485Z,24.4
2018-12-19T01:59:25.085Z,24
2018-12-19T02:00:27.237Z,24.1
2018-12-19T02:01:29.401Z,24.2
2018-12-19T02:02:31.824Z,23.9
2018-12-19T02:03:33.982Z,24.2
2018-12-19T02:04:36.102Z,24.2
2018-12-19T02:05:38.532Z,24.1
2018-12-19T02:06:40.410Z,24.3
2018-12-19T02:07:42.833Z,24
2018-12-19T02:08:44.684Z,24.1
2018-12-19T02:09:46.834Z,24.4
2018-12-19T02:10:49.257Z,24.4
2018-12-19T02:11:51.681Z,24.5
2018-12-19T02:12:54.099Z,24.2
2018-12-19T02:13:56.242Z,24.4
2018-12-19T02:14:58.399Z,24.6
2018-12-19T02:16:00.579Z,23.9
2018-12-19T02:17:03.005Z,24.4
2018-12-19T02:18:05.155Z,24.3
2018-12-19T02:19:07.581Z,23.9
2018-12-19T02:20:10.007Z,24.4
2018-12-19T02:21:12.423Z,24.3
2018-12-19T02:22:14.584Z,24.1
2018-12-19T02:23:17.023Z,24.5
2018-12-19T02:24:19.648Z,24.2
2018-12-19T02:25:22.060Z,24.2
2018-12-19T02:26:24.473Z,23.9
2018-12-19T02:27:26.896Z,24.4
2018-12-19T02:28:29.319Z,24
2018-12-19T02:29:31.751Z,24.4
2018-12-19T02:30:33.905Z,24.2
2018-12-19T02:31:36.340Z,24
2018-12-19T02:32:38.761Z,24.1
2018-12-19T02:33:40.924Z,24.3
2018-12-19T02:34:43.067Z,24.5
2018-12-19T02:35:45.491Z,23.9
2018-12-19T02:36:47.924Z,24
2018-12-19T02:37:50.091Z,23.9
2018-12-19T02:38:52.245Z,24.3
2018-12-19T02:39:54.661Z,24.6
2018-12-19T02:40:56.544Z,23.9
2018-12-19T02:41:58.702Z,24
2018-12-19T02:43:01.136Z,24.4
2018-12-19T02:44:03.050Z,24.4
2018-12-19T02:45:05.480Z,24
2018-12-19T02:46:07.919Z,24.3
2018-12-19T02:47:10.336Z,24.6
2018-12-19T02:48:12.759Z,24.2
2018-12-19T02:49:15.184Z,24
2018-12-19T02:50:17.334Z,24.4
2018-12-19T02:51:19.781Z,24
2018-12-19T02:52:21.381Z,24
2018-12-19T02:53:23.239Z,24.3
2018-12-19T02:54:25.403Z,24.4
2018-12-19T02:55:27.540Z,24.1
2018-12-19T02:56:29.967Z,24.2
2018-12-19T02:57:32.401Z,24.2
2018-12-19T02:58:34.836Z,24.5
2018-12-19T02:59:36.991Z,24.2
2018-12-19T03:00:39.149Z,24.2
2018-12-19T03:01:41.580Z,24.2
2018-12-19T03:02:43.737Z,24.3
2018-12-19T03:03:46.172Z,24.2
2018-12-19T03:04:48.332Z,24
2018-12-19T03:05:50.749Z,24.4
2018-12-19T03:06:53.173Z,24.3
2018-12-19T03:07:55.600Z,24.3
2018-12-19T03:08:58.028Z,24
2018-12-19T03:10:00.197Z,24.4
2018-12-19T03:11:02.720Z,24.2
2018-12-19T03:12:04.880Z,24
2018-12-19T03:13:07.038Z,24.1
2018-12-19T03:14:09.471Z,24
2018-12-19T03:15:11.901Z,24.2
2018-12-19T03:16:14.324Z,24.3
2018-12-19T03:17:16.764Z,24.2
2018-12-19T03:18:18.922Z,24.1
2018-12-19T03:19:21.344Z,23.8
2018-12-19T03:20:23.758Z,24.1
2018-12-19T03:21:25.921Z,24.2
2018-12-19T03:22:28.347Z,24.1
2018-12-19T03:23:30.501Z,24
2018-12-19T03:24:32.929Z,24.1
2018-12-19T03:25:35.083Z,23.9
2018-12-19T03:26:37.510Z,24
2018-12-19T03:27:39.922Z,24.5
2018-12-19T03:28:42.068Z,24.4
2018-12-19T03:29:44.502Z,24.1
2018-12-19T03:30:46.929Z,24.3
2018-12-19T03:31:49.342Z,24.4
2018-12-19T03:32:51.781Z,24.4
2018-12-19T03:33:54.127Z,24.1
2018-12-19T03:34:56.559Z,24.5
2018-12-19T03:36:00.293Z,24.4
2018-12-19T03:37:02.798Z,24
2018-12-19T03:38:04.949Z,24.2
2018-12-19T03:39:07.081Z,24.1
2018-12-19T03:40:09.282Z,24.1
2018-12-19T03:41:11.427Z,24.3
2018-12-19T03:42:13.294Z,24.2
2018-12-19T03:43:15.741Z,24.1
2018-12-19T03:44:17.614Z,24.2
2018-12-19T03:45:20.041Z,24.3
2018-12-19T03:46:22.183Z,24
2018-12-19T03:47:24.620Z,24.7
2018-12-19T03:48:27.041Z,24.2
2018-12-19T03:49:28.921Z,24.2
2018-12-19T03:50:30.825Z,24.2
2018-12-19T03:51:32.953Z,24.5
2018-12-19T03:52:35.105Z,24.3
2018-12-19T03:53:37.259Z,24.7
2018-12-19T03:54:39.401Z,24.3
2018-12-19T03:55:41.833Z,24.7
2018-12-19T03:56:43.979Z,24.3
2018-12-19T03:57:46.395Z,24.5
2018-12-19T03:58:48.825Z,24.2
2018-12-19T03:59:51.247Z,24.2
2018-12-19T04:00:53.384Z,24.1
2018-12-19T04:01:55.805Z,24.6
2018-12-19T04:02:58.234Z,24.3
2018-12-19T04:04:00.373Z,24.5
2018-12-19T04:05:02.526Z,24.2
2018-12-19T04:06:04.938Z,24.2
2018-12-19T04:07:07.358Z,24.2
2018-12-19T04:08:09.785Z,24.3
2018-12-19T04:09:12.208Z,24.3
2018-12-19T04:10:14.353Z,24.1
2018-12-19T04:11:16.777Z,24.1
2018-12-19T04:12:18.932Z,24.3
2018-12-19T04:13:21.351Z,24.1
2018-12-19T04:14:23.498Z,24
2018-12-19T04:15:25.929Z,24.3
2018-12-19T04:16:28.082Z,23.9
2018-12-19T04:17:30.220Z,24.2
2018-12-19T04:18:32.651Z,24.3
2018-12-19T04:19:34.812Z,24.2
2018-12-19T04:20:36.692Z,24.4
2018-12-19T04:21:39.117Z,24.4
2018-12-19T04:22:41.005Z,24.2
2018-12-19T04:23:43.427Z,24.3
2018-12-19T04:24:45.848Z,24
2018-12-19T04:25:48.262Z,23.9
2018-12-19T04:26:50.688Z,23.9
2018-12-19T04:27:52.840Z,24.3
2018-12-19T04:28:55.270Z,24.6
2018-12-19T04:29:57.424Z,24.4
2018-12-19T04:30:59.843Z,24.5
2018-12-19T04:32:02.257Z,24.2
2018-12-19T04:33:04.449Z,24.2
2018-12-19T04:34:06.882Z,24.3
2018-12-19T04:35:09.322Z,24.6
2018-12-19T04:36:11.740Z,24.1
2018-12-19T04:37:14.404Z,24
2018-12-19T04:38:16.747Z,24.2
2018-12-19T04:39:19.045Z,24.1
2018-12-19T04:40:21.267Z,23.9
2018-12-19T04:41:23.433Z,24
2018-12-19T04:42:25.309Z,24
2018-12-19T04:43:27.773Z,24.4
2018-12-19T04:44:30.197Z,24.2
2018-12-19T04:45:32.635Z,23.8
2018-12-19T04:46:35.077Z,24.1
2018-12-19T04:47:37.514Z,24.1
2018-12-19T04:48:39.700Z,23.9
2018-12-19T04:49:42.134Z,24.5
2018-12-19T04:50:45.188Z,24
2018-12-19T04:51:47.624Z,24.3
2018-12-19T04:52:50.065Z,24.2
2018-12-19T04:53:52.501Z,24.1
2018-12-19T04:54:54.942Z,24
2018-12-19T04:55:57.116Z,23.9
2018-12-19T04:56:59.273Z,24.1
2018-12-19T04:58:01.744Z,24
2018-12-19T04:59:04.181Z,24.4
2018-12-19T05:00:06.058Z,23.7
2018-12-19T05:01:08.482Z,24.2
2018-12-19T05:02:10.652Z,23.7
2018-12-19T05:03:13.083Z,23.9
2018-12-19T05:04:15.508Z,24.2
2018-12-19T05:05:17.385Z,23.9
2018-12-19T05:06:19.804Z,24.1
2018-12-19T05:07:22.235Z,24.1
2018-12-19T05:08:24.657Z,24.1
2018-12-19T05:09:27.156Z,24.3
2018-12-19T05:10:29.564Z,24
2018-12-19T05:11:31.989Z,24.2
2018-12-19T05:12:34.421Z,23.9
2018-12-19T05:13:36.599Z,23.6
2018-12-19T05:14:39.025Z,24.3
2018-12-19T05:15:41.193Z,24.1
2018-12-19T05:16:43.635Z,24.1
2018-12-19T05:17:45.779Z,24.3
2018-12-19T05:18:48.242Z,23.8
2018-12-19T05:19:50.399Z,23.9
2018-12-19T05:20:52.571Z,24
2018-12-19T05:21:54.461Z,23.9
2018-12-19T05:22:56.883Z,24.1
2018-12-19T05:23:59.025Z,23.8
2018-12-19T05:25:01.456Z,24.3
2018-12-19T05:26:03.593Z,23.9
2018-12-19T05:27:06.023Z,24.1
2018-12-19T05:28:08.477Z,24
2018-12-19T05:29:10.908Z,23.9
2018-12-19T05:30:13.043Z,24.1
2018-12-19T05:31:15.463Z,24.1
2018-12-19T05:32:17.884Z,23.6
2018-12-19T05:33:20.309Z,24.2
2018-12-19T05:34:22.734Z,24
2018-12-19T05:35:25.169Z,24.1
2018-12-19T05:36:27.617Z,24.1
2018-12-19T05:37:30.034Z,24
2018-12-19T05:38:32.191Z,24.3
2018-12-19T05:39:34.098Z,24
2018-12-19T05:40:36.240Z,24
2018-12-19T05:41:38.664Z,24.1
2018-12-19T05:42:41.085Z,24
2018-12-19T05:43:43.505Z,24
2018-12-19T05:44:45.657Z,24.1
2018-12-19T05:45:48.071Z,23.9
2018-12-19T05:46:50.504Z,24
2018-12-19T05:47:52.934Z,23.8
2018-12-19T05:48:55.084Z,23.7
2018-12-19T05:49:57.225Z,23.7
2018-12-19T05:50:59.707Z,23.8
2018-12-19T05:52:02.133Z,24.1
2018-12-19T05:53:04.565Z,24
2018-12-19T05:54:07.002Z,23.9
2018-12-19T05:55:09.457Z,23.8
2018-12-19T05:56:11.887Z,23.8
2018-12-19T05:57:14.323Z,24
2018-12-19T05:58:16.473Z,23.7
2018-12-19T05:59:18.899Z,23.9
2018-12-19T06:00:21.325Z,24
2018-12-19T06:01:23.205Z,24.2
2018-12-19T06:02:25.647Z,23.6
2018-12-19T06:03:28.083Z,24
2018-12-19T06:04:30.506Z,24.1
2018-12-19T06:05:32.394Z,24.1
2018-12-19T06:06:34.574Z,23.9
2018-12-19T06:07:36.770Z,24
2018-12-19T06:08:39.193Z,23.8
2018-12-19T06:09:41.613Z,23.8
2018-12-19T06:10:43.760Z,24
2018-12-19T06:11:46.185Z,23.9
2018-12-19T06:12:48.601Z,23.9
2018-12-19T06:13:50.776Z,24.1
2018-12-19T06:14:53.194Z,23.8
2018-12-19T06:15:55.618Z,23.7
2018-12-19T06:16:57.769Z,23.7
2018-12-19T06:17:59.935Z,23.9
2018-12-19T06:19:02.091Z,23.8
2018-12-19T06:20:04.519Z,23.9
2018-12-19T06:21:06.683Z,23.6
2018-12-19T06:22:09.153Z,23.7
2018-12-19T06:23:11.577Z,23.8
2018-12-19T06:24:13.714Z,23.7
2018-12-19T06:25:16.145Z,23.9
2018-12-19T06:26:18.558Z,24
2018-12-19T06:27:20.721Z,23.6
2018-12-19T06:28:23.274Z,23.7
2018-12-19T06:29:25.809Z,23.8
2018-12-19T06:30:28.005Z,23.6
2018-12-19T06:33:01.663Z,23.9
2018-12-19T06:34:03.833Z,23.7
2018-12-19T06:35:06.265Z,23.8
2018-12-19T06:36:08.689Z,23.7
2018-12-19T06:37:11.121Z,23.9
2018-12-19T06:38:13.297Z,23.7
2018-12-19T06:39:15.453Z,23.7
2018-12-19T06:40:17.895Z,23.8
2018-12-19T06:41:20.050Z,23.7
2018-12-19T06:42:22.197Z,23.7
2018-12-19T06:43:24.342Z,23.9
2018-12-19T06:44:26.763Z,23.8
2018-12-19T06:45:28.929Z,23.4
2018-12-19T06:46:31.122Z,23.7
2018-12-19T06:47:33.294Z,23.6
2018-12-19T06:48:35.733Z,23.6
2018-12-19T06:49:37.874Z,23.6
2018-12-19T06:50:40.293Z,23.9
2018-12-19T06:51:42.721Z,23.5
2018-12-19T06:52:44.867Z,23.8
2018-12-19T06:53:47.298Z,23.5
2018-12-19T06:54:49.437Z,23.8
2018-12-19T06:55:51.333Z,23.4
2018-12-19T06:56:53.757Z,23.7
2018-12-19T06:57:55.633Z,23.5
2018-12-19T06:58:57.531Z,23.8
2018-12-19T06:59:59.947Z,23.7
2018-12-19T07:01:01.551Z,23.4
2018-12-19T07:02:03.777Z,23.7
2018-12-19T07:03:06.209Z,23.9
2018-12-19T07:04:08.358Z,23.7
2018-12-19T07:05:10.525Z,23.8
2018-12-19T07:06:12.949Z,23.8
2018-12-19T07:07:14.833Z,23.8
2018-12-19T07:08:17.005Z,23.8
2018-12-19T07:09:19.444Z,23.8
2018-12-19T07:10:21.589Z,23.6
2018-12-19T07:11:24.025Z,23.8
2018-12-19T07:12:26.161Z,23.7
2018-12-19T07:13:28.591Z,23.6
2018-12-19T07:14:31.022Z,23.5
2018-12-19T07:15:33.183Z,23.7
2018-12-19T07:16:35.621Z,23.5
2018-12-19T07:17:41.788Z,23.7
2018-12-19T07:18:43.703Z,23.7
2018-12-19T07:19:45.579Z,23.6
2018-12-19T07:20:47.744Z,23.5
2018-12-19T07:21:50.186Z,23.6
2018-12-19T07:22:52.611Z,23.6
2018-12-19T07:23:54.209Z,23.6
2018-12-19T07:24:56.347Z,23.8
2018-12-19T07:25:58.769Z,23.6
2018-12-19T07:27:00.935Z,23.6
2018-12-19T07:28:03.123Z,23.6
2018-12-19T07:29:05.276Z,23.8
2018-12-19T07:30:07.139Z,23.7
2018-12-19T07:31:09.292Z,23.6
2018-12-19T07:32:11.724Z,23.6
2018-12-19T07:33:13.616Z,23.6
2018-12-19T07:34:15.770Z,23.7
2018-12-19T07:35:18.203Z,23.8
2018-12-19T07:36:20.069Z,23.5
2018-12-19T07:37:22.493Z,23.8
2018-12-19T07:38:24.389Z,23.6
2018-12-19T07:39:26.279Z,23.6
2018-12-19T07:40:28.430Z,23.7
2018-12-19T07:41:30.574Z,23.8
2018-12-19T07:42:33.012Z,23.8
2018-12-19T07:43:35.190Z,23.9
2018-12-19T07:44:37.629Z,23.7
2018-12-19T07:45:39.512Z,23.5
2018-12-19T07:46:41.669Z,23.6
2018-12-19T07:47:44.103Z,23.6
2018-12-19T07:48:45.992Z,23.7
2018-12-19T07:49:47.873Z,23.5
2018-12-19T07:50:50.321Z,23.6
2018-12-19T07:51:52.753Z,23.8
2018-12-19T07:52:55.207Z,23.8
2018-12-19T07:53:57.671Z,23.6
2018-12-19T07:54:59.839Z,23.5
2018-12-19T07:56:02.274Z,23.6
2018-12-19T07:57:04.150Z,23.4
2018-12-19T07:58:06.575Z,23.7
2018-12-19T07:59:08.727Z,23.6
2018-12-19T08:00:11.163Z,23.8
2018-12-19T08:01:13.300Z,23.5
2018-12-19T08:02:15.461Z,23.7
2018-12-19T08:03:17.891Z,23.7
2018-12-19T08:04:20.315Z,23.6
2018-12-19T08:05:26.053Z,23.7
2018-12-19T08:06:27.710Z,23.5
2018-12-19T08:07:29.599Z,23.6
2018-12-19T08:08:32.029Z,23.7
2018-12-19T08:09:34.195Z,23.6
2018-12-19T08:10:36.637Z,23.6
2018-12-19T08:11:38.783Z,23.7
2018-12-19T08:12:40.640Z,23.4
2018-12-19T08:13:42.805Z,23.6
2018-12-19T08:14:45.284Z,23.8
2018-12-19T08:15:47.750Z,23.7
2018-12-19T08:16:50.169Z,23.5
2018-12-19T08:17:52.603Z,23.5
2018-12-19T08:18:55.035Z,23.7
2018-12-19T08:19:57.455Z,23.7
2018-12-19T08:20:59.643Z,23.7
2018-12-19T08:22:02.071Z,23.6
2018-12-19T08:23:04.496Z,23.7
2018-12-19T08:24:06.908Z,23.5
2018-12-19T08:25:09.334Z,23.6
2018-12-19T08:26:11.241Z,23.9
2018-12-19T08:27:13.659Z,23.7
2018-12-19T08:28:16.087Z,23.5
2018-12-19T08:29:18.511Z,23.5
2018-12-19T08:30:20.651Z,23.7
2018-12-19T08:31:23.079Z,23.6
2018-12-19T08:32:24.951Z,23.7
2018-12-19T08:33:27.399Z,23.6
2018-12-19T08:34:29.556Z,23.6
2018-12-19T08:35:31.705Z,23.3
2018-12-19T08:36:33.583Z,23.6
2018-12-19T08:37:35.739Z,23.6
2018-12-19T08:38:38.172Z,23.5
2018-12-19T08:39:40.328Z,23.6
2018-12-19T08:40:42.479Z,23.6
2018-12-19T08:41:44.664Z,23.6
2018-12-19T08:42:46.532Z,23.5
2018-12-19T08:43:48.970Z,23.6
2018-12-19T08:44:51.129Z,23.7
2018-12-19T08:45:53.558Z,23.6
2018-12-19T08:46:55.463Z,23.6
2018-12-19T08:47:57.622Z,23.6
2018-12-19T08:49:00.050Z,23.6
2018-12-19T08:50:02.475Z,23.7
2018-12-19T08:51:06.059Z,23.6
2018-12-19T08:52:07.944Z,23.4
2018-12-19T08:53:10.390Z,23.7
2018-12-19T08:54:12.825Z,23.7
2018-12-19T08:55:15.254Z,23.5
2018-12-19T08:56:17.440Z,23.6
2018-12-19T08:57:19.652Z,23.8
2018-12-19T08:58:22.081Z,23.5
2018-12-19T08:59:24.507Z,23.4
2018-12-19T09:00:26.665Z,23.5
2018-12-19T09:01:29.088Z,23.4
2018-12-19T09:02:31.239Z,23.7
2018-12-19T09:03:33.416Z,23.6
2018-12-19T09:04:35.300Z,23.6
2018-12-19T09:05:37.740Z,23.6
2018-12-19T09:06:40.177Z,23.7
2018-12-19T09:07:42.777Z,23.6
2018-12-19T09:08:45.246Z,23.7
2018-12-19T09:09:47.680Z,23.7
2018-12-19T09:10:49.839Z,23.6
2018-12-19T09:11:52.005Z,23.5
2018-12-19T09:12:54.435Z,23.7
2018-12-19T09:13:56.856Z,23.5
2018-12-19T09:15:00.470Z,23.5
2018-12-19T09:16:02.982Z,23.6
2018-12-19T09:17:05.405Z,23.6
2018-12-19T09:18:07.561Z,23.7
2018-12-19T09:19:09.703Z,23.5
2018-12-19T09:20:11.862Z,23.6
2018-12-19T09:21:14.034Z,23.6
2018-12-19T09:22:16.446Z,23.5
2018-12-19T09:23:18.600Z,23.6
2018-12-19T09:24:21.011Z,23.7
2018-12-19T09:25:23.158Z,23.7
2018-12-19T09:26:25.319Z,23.5
2018-12-19T09:27:27.495Z,23.4
2018-12-19T09:28:29.652Z,23.3
2018-12-19T09:29:31.792Z,23.6
2018-12-19T09:30:34.246Z,23.6
2018-12-19T09:31:36.374Z,23.7
2018-12-19T09:32:38.794Z,23.6
2018-12-19T09:33:41.239Z,23.5
2018-12-19T09:34:43.401Z,23.5
2018-12-19T09:35:45.831Z,23.7
2018-12-19T09:36:48.248Z,23.8
2018-12-19T09:37:50.388Z,23.4
2018-12-19T09:38:52.280Z,23.5
2018-12-19T09:39:54.181Z,23.6
2018-12-19T09:40:56.311Z,23.7
2018-12-19T09:41:58.498Z,23.6
2018-12-19T09:43:00.659Z,23.5
2018-12-19T09:44:02.542Z,23.5
2018-12-19T09:45:04.980Z,23.7
2018-12-19T09:46:07.228Z,23.4
2018-12-19T09:47:09.653Z,23.6
2018-12-19T09:48:11.801Z,23.5
2018-12-19T09:49:14.216Z,23.7
2018-12-19T09:50:16.635Z,23.6
2018-12-19T09:51:18.780Z,23.5
2018-12-19T09:52:21.202Z,23.7
2018-12-19T09:53:23.622Z,23.6
2018-12-19T09:54:26.044Z,23.7
2018-12-19T09:55:28.185Z,23.6
2018-12-19T09:56:30.613Z,23.6
2018-12-19T09:57:32.459Z,23.4
2018-12-19T09:58:34.616Z,23.7
2018-12-19T09:59:36.772Z,23.6
2018-12-19T10:00:39.210Z,23.7
2018-12-19T10:01:41.074Z,23.4
2018-12-19T10:02:43.221Z,23.6
2018-12-19T10:03:45.381Z,23.6
2018-12-19T10:04:47.821Z,23.4
2018-12-19T10:05:50.081Z,23.6
2018-12-19T10:06:52.229Z,23.6
2018-12-19T10:09:25.843Z,23.7
2018-12-19T10:10:28.282Z,23.6
2018-12-19T10:11:30.713Z,23.5
2018-12-19T10:12:33.134Z,23.3
2018-12-19T10:13:35.597Z,23.5
2018-12-19T10:14:37.223Z,23.4
2018-12-19T10:15:39.355Z,23.5
2018-12-19T10:16:41.808Z,23.5
2018-12-19T10:17:44.239Z,23.5
2018-12-19T10:18:46.663Z,23.5
2018-12-19T10:19:49.084Z,23.6
2018-12-19T10:20:51.520Z,23.6
2018-12-19T10:21:53.952Z,23.4
2018-12-19T10:22:56.102Z,23.4
2018-12-19T10:23:58.541Z,23.7
2018-12-19T10:25:00.744Z,23.5
2018-12-19T10:26:02.893Z,23.7
2018-12-19T10:27:05.323Z,23.5
2018-12-19T10:28:07.771Z,23.6
2018-12-19T10:29:09.637Z,23.6
2018-12-19T10:30:12.077Z,23.6
2018-12-19T10:31:14.538Z,23.4
2018-12-19T10:32:16.673Z,23.5
2018-12-19T10:33:19.097Z,23.7
2018-12-19T10:34:21.528Z,23.6
2018-12-19T10:35:23.682Z,23.5
2018-12-19T10:36:25.845Z,23.4
2018-12-19T10:37:27.743Z,23.4
2018-12-19T10:38:30.267Z,23.7
2018-12-19T10:39:32.138Z,23.6
2018-12-19T10:40:34.292Z,23.3
2018-12-19T10:41:36.716Z,23.6
2018-12-19T10:42:39.143Z,23.4
2018-12-19T10:43:41.791Z,23.4
2018-12-19T10:44:44.256Z,23.6
2018-12-19T10:45:46.412Z,23.5
2018-12-19T10:46:48.838Z,23.4
2018-12-19T10:47:50.992Z,23.7
2018-12-19T10:48:53.328Z,23.6
2018-12-19T10:49:55.212Z,23.6
2018-12-19T10:50:57.642Z,23.5
2018-12-19T10:51:59.821Z,23.6
2018-12-19T10:53:02.253Z,23.6
2018-12-19T10:54:04.409Z,23.6
2018-12-19T10:55:06.851Z,23.5
2018-12-19T10:56:09.033Z,23.6
2018-12-19T10:57:11.460Z,23.5
2018-12-19T10:58:13.673Z,23.5
2018-12-19T10:59:16.109Z,23.6
2018-12-19T11:00:18.527Z,23.5
2018-12-19T11:01:20.725Z,23.6
2018-12-19T11:02:23.141Z,23.5
2018-12-19T11:03:24.710Z,23.5
2018-12-19T11:04:27.145Z,23.6
2018-12-19T11:05:29.562Z,23.4
2018-12-19T11:06:31.990Z,23.6
2018-12-19T11:07:34.415Z,23.7
2018-12-19T11:08:36.846Z,23.7
2018-12-19T11:09:39.270Z,23.6
2018-12-19T11:10:41.403Z,23.7
2018-12-19T11:11:43.842Z,23.6
2018-12-19T11:12:46.484Z,23.6
2018-12-19T11:13:48.642Z,23.8
2018-12-19T11:14:51.082Z,23.6
2018-12-19T11:15:53.512Z,23.7
2018-12-19T11:16:55.948Z,23.6
2018-12-19T11:17:58.394Z,23.7
2018-12-19T11:19:00.822Z,23.6
2018-12-19T11:20:03.264Z,23.7
2018-12-19T11:21:05.693Z,23.6
2018-12-19T11:22:08.123Z,23.7
2018-12-19T11:23:10.278Z,23.7
2018-12-19T11:24:12.161Z,23.7
2018-12-19T11:25:14.042Z,23.4
2018-12-19T11:26:16.194Z,23.8
2018-12-19T11:27:18.352Z,23.5
2018-12-19T11:28:20.478Z,23.7
2018-12-19T11:29:22.936Z,23.5
2018-12-19T11:30:24.914Z,23.7
2018-12-19T11:31:26.783Z,23.7
2018-12-19T11:32:28.672Z,23.5
2018-12-19T11:33:30.864Z,23.8
2018-12-19T11:34:32.450Z,23.7
2018-12-19T11:35:34.343Z,23.6
2018-12-19T11:36:36.770Z,23.8
2018-12-19T11:37:38.953Z,23.6
2018-12-19T11:38:41.390Z,23.6
2018-12-19T11:39:43.535Z,23.8
2018-12-19T11:40:45.972Z,23.5
2018-12-19T11:41:48.462Z,23.7
2018-12-19T11:42:50.652Z,23.5
2018-12-19T11:43:53.102Z,23.6
2018-12-19T11:44:55.272Z,23.5
2018-12-19T11:45:58.607Z,23.5
2018-12-19T11:47:00.735Z,23.7
2018-12-19T11:48:02.642Z,23.6
2018-12-19T11:49:05.064Z,23.6
2018-12-19T11:50:07.482Z,23.3
2018-12-19T11:51:09.631Z,23.5
2018-12-19T11:52:12.058Z,23.8
2018-12-19T11:53:14.482Z,23.5
2018-12-19T11:54:16.651Z,23.7
2018-12-19T11:55:18.812Z,23.4
2018-12-19T11:56:20.967Z,23.5
2018-12-19T11:57:23.429Z,23.6
2018-12-19T11:58:25.968Z,23.5
2018-12-19T11:59:27.818Z,23.4
2018-12-19T12:00:29.701Z,23.6
2018-12-19T12:01:32.136Z,23.6
2018-12-19T12:02:34.560Z,23.5
2018-12-19T12:03:36.979Z,23.6
2018-12-19T12:04:39.116Z,23.5
2018-12-19T12:05:41.574Z,23.5
2018-12-19T12:06:44.059Z,23.6
2018-12-19T12:07:46.481Z,23.6
2018-12-19T12:08:48.637Z,23.5
2018-12-19T12:09:51.063Z,23.5
2018-12-19T12:10:53.492Z,23.5
2018-12-19T12:11:55.918Z,23.7
2018-12-19T12:12:58.067Z,23.5
2018-12-19T12:14:00.491Z,23.5
2018-12-19T12:15:02.929Z,23.5
2018-12-19T12:16:05.079Z,23.6
2018-12-19T12:17:06.985Z,23.6
2018-12-19T12:18:10.744Z,23.6
2018-12-19T12:19:12.613Z,23.6
2018-12-19T12:20:15.070Z,23.6
2018-12-19T12:21:17.495Z,23.6
2018-12-19T12:22:19.643Z,23.7
2018-12-19T12:23:22.057Z,23.4
2018-12-19T12:24:24.500Z,23.6
2018-12-19T12:25:26.931Z,23.5
2018-12-19T12:26:29.363Z,23.4
2018-12-19T12:27:31.795Z,23.5
2018-12-19T12:28:33.929Z,23.7
2018-12-19T12:29:36.379Z,23.6
2018-12-19T12:30:38.547Z,23.6
2018-12-19T12:31:40.989Z,23.6
2018-12-19T12:32:43.427Z,23.4
2018-12-19T12:33:45.855Z,23.4
2018-12-19T12:34:48.283Z,23.5
2018-12-19T12:35:50.723Z,23.5
2018-12-19T12:36:53.149Z,23.6
2018-12-19T12:37:55.581Z,23.3
2018-12-19T12:38:58.023Z,23.5
2018-12-19T12:40:00.457Z,23.5
2018-12-19T12:41:02.611Z,23.5
2018-12-19T12:42:05.033Z,23.5
2018-12-19T12:43:07.478Z,23.4
2018-12-19T12:44:09.916Z,23.6
2018-12-19T12:45:12.336Z,23.6
2018-12-19T12:46:14.767Z,23.5
2018-12-19T12:47:17.183Z,23.6
2018-12-19T12:48:19.331Z,23.8
2018-12-19T12:49:21.770Z,23.6
2018-12-19T12:50:24.212Z,23.5
2018-12-19T12:51:26.644Z,23.6
2018-12-19T12:52:29.075Z,23.5
2018-12-19T12:53:31.196Z,23.6
2018-12-19T12:54:33.642Z,23.4
2018-12-19T12:55:35.808Z,23.4
2018-12-19T12:56:37.958Z,23.6
2018-12-19T12:57:40.122Z,23.4
2018-12-19T12:58:42.556Z,23.5
2018-12-19T12:59:44.977Z,23.5
2018-12-19T13:00:47.125Z,23.6
2018-12-19T13:01:49.274Z,23.7
2018-12-19T13:02:51.708Z,23.5
2018-12-19T13:03:54.144Z,23.6
2018-12-19T13:04:56.043Z,23.4
2018-12-19T13:05:57.916Z,23.5
2018-12-19T13:07:00.050Z,23.9
2018-12-19T13:08:01.954Z,23.5
2018-12-19T13:09:04.111Z,23.7
2018-12-19T13:10:06.551Z,23.5
2018-12-19T13:11:08.982Z,23.6
2018-12-19T13:12:11.411Z,23.6
2018-12-19T13:13:13.571Z,23.7
2018-12-19T13:14:15.170Z,23.5
2018-12-19T13:15:17.610Z,23.6
2018-12-19T13:16:19.746Z,23.6
2018-12-19T13:17:21.891Z,23.7
2018-12-19T13:18:24.313Z,23.6
2018-12-19T13:19:26.211Z,23.6
2018-12-19T13:20:28.666Z,23.4
2018-12-19T13:21:31.102Z,23.7
2018-12-19T13:22:33.528Z,23.8
2018-12-19T13:23:35.674Z,23.6
2018-12-19T13:24:37.837Z,23.5
2018-12-19T13:25:40.017Z,23.3
2018-12-19T13:26:42.460Z,23.8
2018-12-19T13:27:44.624Z,23.7
2018-12-19T13:28:47.053Z,23.5
2018-12-19T13:29:49.492Z,23.5
2018-12-19T13:30:51.108Z,23.5
2018-12-19T13:31:53.251Z,23.7
2018-12-19T13:32:55.120Z,23.6
2018-12-19T13:33:57.281Z,23.7
2018-12-19T13:34:59.732Z,23.5
2018-12-19T13:36:01.890Z,23.3
2018-12-19T13:37:04.052Z,23.5
2018-12-19T13:38:06.259Z,23.5
2018-12-19T13:39:08.420Z,23.4
2018-12-19T13:40:10.844Z,23.5
2018-12-19T13:41:13.267Z,23.5
2018-12-19T13:42:15.693Z,23.7
2018-12-19T13:43:17.572Z,23.7
2018-12-19T13:44:20.014Z,23.8
2018-12-19T13:45:22.157Z,23.6
2018-12-19T13:46:24.579Z,23.4
2018-12-19T13:47:26.743Z,23.5
2018-12-19T13:48:29.169Z,23.6
2018-12-19T13:49:31.334Z,23.6
2018-12-19T13:50:33.761Z,23.5
2018-12-19T13:51:35.911Z,23.7
2018-12-19T13:52:38.347Z,23.6
2018-12-19T13:53:40.784Z,23.7
2018-12-19T13:54:43.220Z,23.7
2018-12-19T13:55:45.655Z,23.6